sensor_id;sensor_type;location;lat;lon;timestamp;P1;durP1;ratioP1;P2;durP2;ratioP2
23185;SDS011;11761;51.324;4.590;2023-04-03T00:01:33;27.23;;;15.13;;
23185;SDS011;11761;51.324;4.590;2023-04-03T00:04:00;28.40;;;14.88;;
23185;SDS011;11761;51.324;4.590;2023-04-03T00:06:26;28.80;;;16.45;;
23185;SDS011;11761;51.324;4.590;2023-04-03T00:08:52;26.73;;;15.55;;
23185;SDS011;11761;51.324;4.590;2023-04-03T00:11:18;29.05;;;15.98;;
23185;SDS011;11761;51.324;4.590;2023-04-03T00:13:46;26.70;;;16.48;;
23185;SDS011;11761;51.324;4.590;2023-04-03T00:16:12;25.45;;;15.60;;
23185;SDS011;11761;51.324;4.590;2023-04-03T00:18:38;22.00;;;15.35;;
23185;SDS011;11761;51.324;4.590;2023-04-03T00:21:05;24.80;;;14.80;;
23185;SDS011;11761;51.324;4.590;2023-04-03T00:23:32;29.90;;;15.82;;
23185;SDS011;11761;51.324;4.590;2023-04-03T00:25:59;30.30;;;15.85;;
23185;SDS011;11761;51.324;4.590;2023-04-03T00:28:25;27.15;;;15.88;;
23185;SDS011;11761;51.324;4.590;2023-04-03T00:30:52;29.83;;;15.43;;
23185;SDS011;11761;51.324;4.590;2023-04-03T00:33:18;31.83;;;15.30;;
23185;SDS011;11761;51.324;4.590;2023-04-03T00:35:47;25.90;;;14.23;;
23185;SDS011;11761;51.324;4.590;2023-04-03T00:38:14;25.88;;;15.15;;
23185;SDS011;11761;51.324;4.590;2023-04-03T00:40:45;26.95;;;15.15;;
23185;SDS011;11761;51.324;4.590;2023-04-03T00:43:14;22.95;;;14.95;;
23185;SDS011;11761;51.324;4.590;2023-04-03T00:45:41;24.73;;;14.52;;
23185;SDS011;11761;51.324;4.590;2023-04-03T00:48:17;27.30;;;14.55;;
23185;SDS011;11761;51.324;4.590;2023-04-03T00:50:46;27.00;;;14.80;;
23185;SDS011;11761;51.324;4.590;2023-04-03T00:53:15;31.00;;;16.13;;
23185;SDS011;11761;51.324;4.590;2023-04-03T00:55:44;26.20;;;15.65;;
23185;SDS011;11761;51.324;4.590;2023-04-03T00:58:12;31.20;;;15.85;;
23185;SDS011;11761;51.324;4.590;2023-04-03T01:00:43;34.25;;;16.45;;
23185;SDS011;11761;51.324;4.590;2023-04-03T01:03:14;33.40;;;16.80;;
23185;SDS011;11761;51.324;4.590;2023-04-03T01:05:40;33.78;;;17.52;;
23185;SDS011;11761;51.324;4.590;2023-04-03T01:08:06;33.80;;;17.02;;
23185;SDS011;11761;51.324;4.590;2023-04-03T01:10:32;30.25;;;16.58;;
23185;SDS011;11761;51.324;4.590;2023-04-03T01:12:58;28.98;;;17.10;;
23185;SDS011;11761;51.324;4.590;2023-04-03T01:15:26;29.35;;;16.67;;
23185;SDS011;11761;51.324;4.590;2023-04-03T01:17:56;30.77;;;17.48;;
23185;SDS011;11761;51.324;4.590;2023-04-03T01:25:36;31.77;;;17.80;;
23185;SDS011;11761;51.324;4.590;2023-04-03T01:28:04;29.23;;;17.15;;
23185;SDS011;11761;51.324;4.590;2023-04-03T01:30:34;36.10;;;17.60;;
23185;SDS011;11761;51.324;4.590;2023-04-03T01:33:16;32.80;;;17.50;;
23185;SDS011;11761;51.324;4.590;2023-04-03T01:35:43;35.22;;;17.67;;
23185;SDS011;11761;51.324;4.590;2023-04-03T01:38:10;31.30;;;18.23;;
23185;SDS011;11761;51.324;4.590;2023-04-03T01:40:36;36.70;;;18.38;;
23185;SDS011;11761;51.324;4.590;2023-04-03T01:43:02;30.30;;;18.00;;
23185;SDS011;11761;51.324;4.590;2023-04-03T01:45:28;28.92;;;17.58;;
23185;SDS011;11761;51.324;4.590;2023-04-03T01:47:56;30.95;;;17.23;;
23185;SDS011;11761;51.324;4.590;2023-04-03T01:50:23;31.88;;;17.98;;
23185;SDS011;11761;51.324;4.590;2023-04-03T01:52:49;29.70;;;18.02;;
23185;SDS011;11761;51.324;4.590;2023-04-03T01:55:15;30.42;;;17.88;;
23185;SDS011;11761;51.324;4.590;2023-04-03T01:57:41;34.30;;;18.73;;
23185;SDS011;11761;51.324;4.590;2023-04-03T02:00:07;37.80;;;18.45;;
23185;SDS011;11761;51.324;4.590;2023-04-03T02:02:34;32.50;;;18.42;;
23185;SDS011;11761;51.324;4.590;2023-04-03T02:05:00;34.45;;;18.52;;
23185;SDS011;11761;51.324;4.590;2023-04-03T02:07:26;35.88;;;19.33;;
23185;SDS011;11761;51.324;4.590;2023-04-03T02:09:52;34.47;;;19.25;;
23185;SDS011;11761;51.324;4.590;2023-04-03T02:12:19;35.42;;;20.02;;
23185;SDS011;11761;51.324;4.590;2023-04-03T02:14:45;33.15;;;18.98;;
23185;SDS011;11761;51.324;4.590;2023-04-03T02:17:11;39.50;;;19.83;;
23185;SDS011;11761;51.324;4.590;2023-04-03T02:19:37;35.58;;;19.33;;
23185;SDS011;11761;51.324;4.590;2023-04-03T02:22:03;32.70;;;18.48;;
23185;SDS011;11761;51.324;4.590;2023-04-03T02:24:30;37.13;;;19.80;;
23185;SDS011;11761;51.324;4.590;2023-04-03T02:26:57;35.70;;;19.35;;
23185;SDS011;11761;51.324;4.590;2023-04-03T02:29:23;37.08;;;19.50;;
23185;SDS011;11761;51.324;4.590;2023-04-03T02:31:50;32.75;;;18.42;;
23185;SDS011;11761;51.324;4.590;2023-04-03T02:34:16;34.92;;;17.92;;
23185;SDS011;11761;51.324;4.590;2023-04-03T02:36:42;32.13;;;18.35;;
23185;SDS011;11761;51.324;4.590;2023-04-03T02:39:08;36.78;;;19.05;;
23185;SDS011;11761;51.324;4.590;2023-04-03T02:41:35;30.58;;;19.00;;
23185;SDS011;11761;51.324;4.590;2023-04-03T02:44:02;32.05;;;17.77;;
23185;SDS011;11761;51.324;4.590;2023-04-03T02:46:28;39.55;;;18.83;;
23185;SDS011;11761;51.324;4.590;2023-04-03T02:48:54;36.15;;;19.52;;
23185;SDS011;11761;51.324;4.590;2023-04-03T02:51:20;34.42;;;18.52;;
23185;SDS011;11761;51.324;4.590;2023-04-03T02:53:46;33.53;;;18.10;;
23185;SDS011;11761;51.324;4.590;2023-04-03T02:56:12;33.63;;;18.55;;
23185;SDS011;11761;51.324;4.590;2023-04-03T02:58:38;35.65;;;18.98;;
23185;SDS011;11761;51.324;4.590;2023-04-03T03:01:04;41.65;;;19.20;;
23185;SDS011;11761;51.324;4.590;2023-04-03T03:03:30;35.13;;;19.33;;
23185;SDS011;11761;51.324;4.590;2023-04-03T03:06:02;40.78;;;20.08;;
23185;SDS011;11761;51.324;4.590;2023-04-03T03:08:33;33.90;;;18.40;;
23185;SDS011;11761;51.324;4.590;2023-04-03T03:10:59;33.60;;;17.70;;
23185;SDS011;11761;51.324;4.590;2023-04-03T03:13:25;35.63;;;18.63;;
23185;SDS011;11761;51.324;4.590;2023-04-03T03:15:52;34.72;;;18.52;;
23185;SDS011;11761;51.324;4.590;2023-04-03T03:18:18;38.05;;;19.63;;
23185;SDS011;11761;51.324;4.590;2023-04-03T03:20:44;37.67;;;19.00;;
23185;SDS011;11761;51.324;4.590;2023-04-03T03:23:10;34.28;;;19.10;;
23185;SDS011;11761;51.324;4.590;2023-04-03T03:25:40;29.90;;;17.90;;
23185;SDS011;11761;51.324;4.590;2023-04-03T03:28:06;29.33;;;17.85;;
23185;SDS011;11761;51.324;4.590;2023-04-03T03:30:32;32.22;;;18.48;;
23185;SDS011;11761;51.324;4.590;2023-04-03T03:32:58;31.38;;;18.30;;
23185;SDS011;11761;51.324;4.590;2023-04-03T03:35:25;27.55;;;18.33;;
23185;SDS011;11761;51.324;4.590;2023-04-03T03:37:50;31.67;;;18.55;;
23185;SDS011;11761;51.324;4.590;2023-04-03T03:40:16;32.78;;;18.17;;
23185;SDS011;11761;51.324;4.590;2023-04-03T03:42:42;35.55;;;18.92;;
23185;SDS011;11761;51.324;4.590;2023-04-03T03:45:09;30.45;;;18.48;;
23185;SDS011;11761;51.324;4.590;2023-04-03T03:47:35;35.22;;;18.35;;
23185;SDS011;11761;51.324;4.590;2023-04-03T03:50:01;34.30;;;18.02;;
23185;SDS011;11761;51.324;4.590;2023-04-03T03:52:27;33.60;;;18.27;;
23185;SDS011;11761;51.324;4.590;2023-04-03T03:54:55;32.90;;;17.95;;
23185;SDS011;11761;51.324;4.590;2023-04-03T03:57:21;32.47;;;17.98;;
23185;SDS011;11761;51.324;4.590;2023-04-03T03:59:47;32.90;;;18.92;;
23185;SDS011;11761;51.324;4.590;2023-04-03T04:02:14;33.97;;;18.65;;
23185;SDS011;11761;51.324;4.590;2023-04-03T04:04:40;31.92;;;18.83;;
23185;SDS011;11761;51.324;4.590;2023-04-03T04:07:06;34.70;;;18.38;;
23185;SDS011;11761;51.324;4.590;2023-04-03T04:09:32;31.20;;;17.55;;
23185;SDS011;11761;51.324;4.590;2023-04-03T04:11:58;35.50;;;19.58;;
23185;SDS011;11761;51.324;4.590;2023-04-03T04:14:24;29.58;;;17.65;;
23185;SDS011;11761;51.324;4.590;2023-04-03T04:16:50;38.63;;;18.83;;
23185;SDS011;11761;51.324;4.590;2023-04-03T04:19:16;36.03;;;18.55;;
23185;SDS011;11761;51.324;4.590;2023-04-03T04:21:42;38.95;;;19.60;;
23185;SDS011;11761;51.324;4.590;2023-04-03T04:24:08;35.65;;;19.02;;
23185;SDS011;11761;51.324;4.590;2023-04-03T04:26:34;38.08;;;20.15;;
23185;SDS011;11761;51.324;4.590;2023-04-03T04:29:00;31.85;;;18.65;;
23185;SDS011;11761;51.324;4.590;2023-04-03T04:31:26;39.13;;;20.25;;
23185;SDS011;11761;51.324;4.590;2023-04-03T04:33:52;38.05;;;19.27;;
23185;SDS011;11761;51.324;4.590;2023-04-03T04:36:19;38.63;;;20.73;;
23185;SDS011;11761;51.324;4.590;2023-04-03T04:38:45;39.25;;;20.08;;
23185;SDS011;11761;51.324;4.590;2023-04-03T04:41:11;40.50;;;19.70;;
23185;SDS011;11761;51.324;4.590;2023-04-03T04:43:36;36.20;;;19.70;;
23185;SDS011;11761;51.324;4.590;2023-04-03T04:46:04;33.67;;;19.83;;
23185;SDS011;11761;51.324;4.590;2023-04-03T04:48:34;39.00;;;19.17;;
23185;SDS011;11761;51.324;4.590;2023-04-03T04:51:01;40.75;;;19.55;;
23185;SDS011;11761;51.324;4.590;2023-04-03T04:53:27;36.55;;;19.42;;
23185;SDS011;11761;51.324;4.590;2023-04-03T04:55:53;37.95;;;19.17;;
23185;SDS011;11761;51.324;4.590;2023-04-03T04:58:19;45.03;;;19.30;;
23185;SDS011;11761;51.324;4.590;2023-04-03T05:00:46;35.65;;;19.67;;
23185;SDS011;11761;51.324;4.590;2023-04-03T05:03:12;40.40;;;19.85;;
23185;SDS011;11761;51.324;4.590;2023-04-03T05:05:37;35.92;;;19.95;;
23185;SDS011;11761;51.324;4.590;2023-04-03T05:08:03;33.78;;;18.95;;
23185;SDS011;11761;51.324;4.590;2023-04-03T05:10:30;37.17;;;18.92;;
23185;SDS011;11761;51.324;4.590;2023-04-03T05:12:56;34.78;;;18.92;;
23185;SDS011;11761;51.324;4.590;2023-04-03T05:15:23;41.00;;;20.70;;
23185;SDS011;11761;51.324;4.590;2023-04-03T05:17:49;34.83;;;19.23;;
23185;SDS011;11761;51.324;4.590;2023-04-03T05:20:16;35.53;;;19.88;;
23185;SDS011;11761;51.324;4.590;2023-04-03T05:22:42;33.72;;;19.20;;
23185;SDS011;11761;51.324;4.590;2023-04-03T05:25:08;36.40;;;18.73;;
23185;SDS011;11761;51.324;4.590;2023-04-03T05:27:35;35.08;;;18.52;;
23185;SDS011;11761;51.324;4.590;2023-04-03T05:30:01;35.47;;;19.77;;
23185;SDS011;11761;51.324;4.590;2023-04-03T05:32:28;35.63;;;19.92;;
23185;SDS011;11761;51.324;4.590;2023-04-03T05:34:54;33.33;;;19.85;;
23185;SDS011;11761;51.324;4.590;2023-04-03T05:37:20;35.45;;;19.60;;
23185;SDS011;11761;51.324;4.590;2023-04-03T05:39:47;35.63;;;19.33;;
23185;SDS011;11761;51.324;4.590;2023-04-03T05:42:13;32.47;;;18.90;;
23185;SDS011;11761;51.324;4.590;2023-04-03T05:44:40;36.40;;;18.85;;
23185;SDS011;11761;51.324;4.590;2023-04-03T05:47:06;39.88;;;19.20;;
23185;SDS011;11761;51.324;4.590;2023-04-03T05:49:32;40.67;;;20.65;;
23185;SDS011;11761;51.324;4.590;2023-04-03T05:51:59;34.95;;;19.40;;
23185;SDS011;11761;51.324;4.590;2023-04-03T05:54:26;34.83;;;19.42;;
23185;SDS011;11761;51.324;4.590;2023-04-03T05:56:54;37.75;;;20.58;;
23185;SDS011;11761;51.324;4.590;2023-04-03T05:59:20;32.60;;;19.95;;
23185;SDS011;11761;51.324;4.590;2023-04-03T06:01:47;44.70;;;22.33;;
23185;SDS011;11761;51.324;4.590;2023-04-03T06:04:13;41.22;;;23.10;;
23185;SDS011;11761;51.324;4.590;2023-04-03T06:07:13;41.90;;;22.60;;
23185;SDS011;11761;51.324;4.590;2023-04-03T06:09:33;40.05;;;22.88;;
23185;SDS011;11761;51.324;4.590;2023-04-03T06:11:59;38.03;;;24.25;;
23185;SDS011;11761;51.324;4.590;2023-04-03T06:14:25;38.13;;;23.30;;
23185;SDS011;11761;51.324;4.590;2023-04-03T06:16:52;43.25;;;24.10;;
23185;SDS011;11761;51.324;4.590;2023-04-03T06:19:19;39.33;;;24.33;;
23185;SDS011;11761;51.324;4.590;2023-04-03T06:21:46;39.88;;;23.50;;
23185;SDS011;11761;51.324;4.590;2023-04-03T06:24:13;37.60;;;23.25;;
23185;SDS011;11761;51.324;4.590;2023-04-03T06:26:41;36.88;;;23.98;;
23185;SDS011;11761;51.324;4.590;2023-04-03T06:29:08;36.72;;;21.55;;
23185;SDS011;11761;51.324;4.590;2023-04-03T06:31:34;33.08;;;21.92;;
23185;SDS011;11761;51.324;4.590;2023-04-03T06:34:03;32.72;;;21.15;;
23185;SDS011;11761;51.324;4.590;2023-04-03T06:36:29;36.15;;;22.85;;
23185;SDS011;11761;51.324;4.590;2023-04-03T06:38:55;38.97;;;26.08;;
23185;SDS011;11761;51.324;4.590;2023-04-03T06:41:21;31.33;;;22.73;;
23185;SDS011;11761;51.324;4.590;2023-04-03T06:43:47;24.50;;;19.08;;
23185;SDS011;11761;51.324;4.590;2023-04-03T06:46:16;22.52;;;13.80;;
23185;SDS011;11761;51.324;4.590;2023-04-03T06:48:43;12.13;;;8.70;;
23185;SDS011;11761;51.324;4.590;2023-04-03T06:51:28;18.10;;;11.02;;
23185;SDS011;11761;51.324;4.590;2023-04-03T06:53:56;14.40;;;8.57;;
23185;SDS011;11761;51.324;4.590;2023-04-03T06:56:24;12.93;;;6.97;;
23185;SDS011;11761;51.324;4.590;2023-04-03T06:58:51;10.15;;;5.80;;
23185;SDS011;11761;51.324;4.590;2023-04-03T07:01:20;12.35;;;7.32;;
23185;SDS011;11761;51.324;4.590;2023-04-03T07:03:47;18.65;;;10.20;;
23185;SDS011;11761;51.324;4.590;2023-04-03T07:06:14;11.30;;;6.40;;
23185;SDS011;11761;51.324;4.590;2023-04-03T07:08:41;10.00;;;5.97;;
23185;SDS011;11761;51.324;4.590;2023-04-03T07:11:11;8.30;;;5.53;;
23185;SDS011;11761;51.324;4.590;2023-04-03T07:13:38;7.53;;;4.07;;
23185;SDS011;11761;51.324;4.590;2023-04-03T07:16:04;8.68;;;4.40;;
23185;SDS011;11761;51.324;4.590;2023-04-03T07:18:32;5.60;;;3.35;;
23185;SDS011;11761;51.324;4.590;2023-04-03T07:20:58;6.85;;;4.15;;
23185;SDS011;11761;51.324;4.590;2023-04-03T07:23:26;7.40;;;4.40;;
23185;SDS011;11761;51.324;4.590;2023-04-03T07:25:52;8.18;;;3.88;;
23185;SDS011;11761;51.324;4.590;2023-04-03T07:28:19;7.43;;;3.78;;
23185;SDS011;11761;51.324;4.590;2023-04-03T07:30:46;10.18;;;4.95;;
23185;SDS011;11761;51.324;4.590;2023-04-03T07:33:16;12.27;;;6.22;;
23185;SDS011;11761;51.324;4.590;2023-04-03T07:35:44;9.15;;;4.53;;
23185;SDS011;11761;51.324;4.590;2023-04-03T07:38:13;6.68;;;4.20;;
23185;SDS011;11761;51.324;4.590;2023-04-03T07:40:39;8.18;;;4.88;;
23185;SDS011;11761;51.324;4.590;2023-04-03T07:43:11;6.82;;;3.30;;
23185;SDS011;11761;51.324;4.590;2023-04-03T07:45:38;8.10;;;4.32;;
23185;SDS011;11761;51.324;4.590;2023-04-03T07:48:04;7.18;;;4.05;;
23185;SDS011;11761;51.324;4.590;2023-04-03T07:50:30;4.97;;;3.13;;
23185;SDS011;11761;51.324;4.590;2023-04-03T07:52:57;8.70;;;5.38;;
23185;SDS011;11761;51.324;4.590;2023-04-03T07:55:24;7.18;;;3.22;;
23185;SDS011;11761;51.324;4.590;2023-04-03T07:57:51;6.18;;;3.47;;
23185;SDS011;11761;51.324;4.590;2023-04-03T08:00:17;7.72;;;3.83;;
23185;SDS011;11761;51.324;4.590;2023-04-03T08:02:45;6.90;;;2.88;;
23185;SDS011;11761;51.324;4.590;2023-04-03T08:05:16;5.05;;;2.97;;
23185;SDS011;11761;51.324;4.590;2023-04-03T08:07:46;6.88;;;2.70;;
23185;SDS011;11761;51.324;4.590;2023-04-03T08:10:13;4.00;;;2.50;;
23185;SDS011;11761;51.324;4.590;2023-04-03T08:12:40;5.40;;;2.80;;
23185;SDS011;11761;51.324;4.590;2023-04-03T08:15:07;7.97;;;2.80;;
23185;SDS011;11761;51.324;4.590;2023-04-03T08:17:34;4.47;;;2.50;;
23185;SDS011;11761;51.324;4.590;2023-04-03T08:20:00;4.18;;;2.72;;
23185;SDS011;11761;51.324;4.590;2023-04-03T08:22:28;4.15;;;2.38;;
23185;SDS011;11761;51.324;4.590;2023-04-03T08:24:55;4.95;;;2.60;;
23185;SDS011;11761;51.324;4.590;2023-04-03T08:27:21;3.55;;;2.08;;
23185;SDS011;11761;51.324;4.590;2023-04-03T08:29:47;5.55;;;2.70;;
23185;SDS011;11761;51.324;4.590;2023-04-03T08:32:13;6.15;;;2.35;;
23185;SDS011;11761;51.324;4.590;2023-04-03T08:34:39;5.57;;;2.35;;
23185;SDS011;11761;51.324;4.590;2023-04-03T08:37:05;5.05;;;2.25;;
23185;SDS011;11761;51.324;4.590;2023-04-03T08:39:31;5.63;;;2.30;;
23185;SDS011;11761;51.324;4.590;2023-04-03T08:41:58;4.13;;;2.33;;
23185;SDS011;11761;51.324;4.590;2023-04-03T08:47:20;4.93;;;2.50;;
23185;SDS011;11761;51.324;4.590;2023-04-03T08:52:31;4.90;;;2.70;;
23185;SDS011;11761;51.324;4.590;2023-04-03T08:58:00;8.23;;;2.90;;
23185;SDS011;11761;51.324;4.590;2023-04-03T09:03:19;4.63;;;2.00;;
23185;SDS011;11761;51.324;4.590;2023-04-03T09:16:49;5.45;;;2.30;;
23185;SDS011;11761;51.324;4.590;2023-04-03T09:19:22;4.32;;;2.22;;
23185;SDS011;11761;51.324;4.590;2023-04-03T09:22:24;6.00;;;2.55;;
23185;SDS011;11761;51.324;4.590;2023-04-03T09:24:57;4.72;;;2.22;;
23185;SDS011;11761;51.324;4.590;2023-04-03T09:27:35;5.60;;;2.30;;
23185;SDS011;11761;51.324;4.590;2023-04-03T09:30:01;6.13;;;2.60;;
23185;SDS011;11761;51.324;4.590;2023-04-03T09:32:29;4.93;;;2.40;;
23185;SDS011;11761;51.324;4.590;2023-04-03T09:34:57;3.70;;;2.00;;
23185;SDS011;11761;51.324;4.590;2023-04-03T09:37:36;4.78;;;2.28;;
23185;SDS011;11761;51.324;4.590;2023-04-03T09:40:05;6.72;;;2.30;;
23185;SDS011;11761;51.324;4.590;2023-04-03T09:42:52;3.65;;;2.20;;
23185;SDS011;11761;51.324;4.590;2023-04-03T09:45:33;5.53;;;2.45;;
23185;SDS011;11761;51.324;4.590;2023-04-03T09:48:08;7.55;;;2.40;;
23185;SDS011;11761;51.324;4.590;2023-04-03T09:50:52;5.55;;;2.20;;
23185;SDS011;11761;51.324;4.590;2023-04-03T09:55:56;5.45;;;1.83;;
23185;SDS011;11761;51.324;4.590;2023-04-03T09:58:24;4.70;;;2.20;;
23185;SDS011;11761;51.324;4.590;2023-04-03T10:00:57;5.32;;;2.10;;
23185;SDS011;11761;51.324;4.590;2023-04-03T10:03:31;5.88;;;2.30;;
23185;SDS011;11761;51.324;4.590;2023-04-03T10:06:01;5.75;;;2.50;;
23185;SDS011;11761;51.324;4.590;2023-04-03T10:08:29;5.28;;;2.00;;
23185;SDS011;11761;51.324;4.590;2023-04-03T10:13:33;5.22;;;1.80;;
23185;SDS011;11761;51.324;4.590;2023-04-03T10:24:47;5.15;;;2.78;;
23185;SDS011;11761;51.324;4.590;2023-04-03T10:30:19;2.67;;;1.80;;
23185;SDS011;11761;51.324;4.590;2023-04-03T10:33:42;5.15;;;1.80;;
23185;SDS011;11761;51.324;4.590;2023-04-03T10:35:58;3.22;;;1.70;;
23185;SDS011;11761;51.324;4.590;2023-04-03T10:38:43;2.63;;;1.00;;
23185;SDS011;11761;51.324;4.590;2023-04-03T10:41:45;2.58;;;1.70;;
23185;SDS011;11761;51.324;4.590;2023-04-03T10:44:42;8.07;;;4.18;;
23185;SDS011;11761;51.324;4.590;2023-04-03T10:53:18;4.03;;;2.10;;
23185;SDS011;11761;51.324;4.590;2023-04-03T10:58:50;3.50;;;1.80;;
23185;SDS011;11761;51.324;4.590;2023-04-03T11:01:24;7.65;;;1.73;;
23185;SDS011;11761;51.324;4.590;2023-04-03T11:03:57;3.63;;;1.10;;
23185;SDS011;11761;51.324;4.590;2023-04-03T11:06:26;2.28;;;1.05;;
23185;SDS011;11761;51.324;4.590;2023-04-03T11:09:37;1.45;;;0.75;;
23185;SDS011;11761;51.324;4.590;2023-04-03T11:12:12;2.38;;;1.10;;
23185;SDS011;11761;51.324;4.590;2023-04-03T11:14:59;2.70;;;1.10;;
23185;SDS011;11761;51.324;4.590;2023-04-03T11:20:17;2.95;;;1.17;;
23185;SDS011;11761;51.324;4.590;2023-04-03T11:23:19;1.70;;;0.98;;
23185;SDS011;11761;51.324;4.590;2023-04-03T11:25:51;1.85;;;1.00;;
23185;SDS011;11761;51.324;4.590;2023-04-03T11:28:20;2.47;;;1.00;;
23185;SDS011;11761;51.324;4.590;2023-04-03T11:36:21;1.98;;;1.17;;
23185;SDS011;11761;51.324;4.590;2023-04-03T11:38:53;3.08;;;1.20;;
23185;SDS011;11761;51.324;4.590;2023-04-03T11:41:24;3.90;;;1.15;;
23185;SDS011;11761;51.324;4.590;2023-04-03T11:44:04;3.35;;;1.50;;
23185;SDS011;11761;51.324;4.590;2023-04-03T11:46:52;2.75;;;1.02;;
23185;SDS011;11761;51.324;4.590;2023-04-03T12:05:53;1.77;;;0.93;;
23185;SDS011;11761;51.324;4.590;2023-04-03T12:16:26;4.07;;;2.45;;
23185;SDS011;11761;51.324;4.590;2023-04-03T12:21:24;27.83;;;13.75;;
23185;SDS011;11761;51.324;4.590;2023-04-03T12:40:21;4.03;;;1.60;;
23185;SDS011;11761;51.324;4.590;2023-04-03T12:48:50;1.95;;;1.08;;
23185;SDS011;11761;51.324;4.590;2023-04-03T12:51:40;5.18;;;1.58;;
23185;SDS011;11761;51.324;4.590;2023-04-03T12:54:19;4.18;;;1.23;;
23185;SDS011;11761;51.324;4.590;2023-04-03T12:56:52;2.95;;;1.20;;
23185;SDS011;11761;51.324;4.590;2023-04-03T12:59:47;1.45;;;0.95;;
23185;SDS011;11761;51.324;4.590;2023-04-03T13:05:05;1.42;;;0.93;;
23185;SDS011;11761;51.324;4.590;2023-04-03T13:07:34;2.95;;;1.13;;
23185;SDS011;11761;51.324;4.590;2023-04-03T13:12:35;2.83;;;1.20;;
23185;SDS011;11761;51.324;4.590;2023-04-03T13:15:22;2.70;;;0.90;;
23185;SDS011;11761;51.324;4.590;2023-04-03T13:17:48;2.97;;;1.13;;
23185;SDS011;11761;51.324;4.590;2023-04-03T13:20:21;3.17;;;0.88;;
23185;SDS011;11761;51.324;4.590;2023-04-03T13:25:25;1.58;;;0.82;;
23185;SDS011;11761;51.324;4.590;2023-04-03T13:27:54;2.90;;;1.25;;
23185;SDS011;11761;51.324;4.590;2023-04-03T13:30:33;3.60;;;1.38;;
23185;SDS011;11761;51.324;4.590;2023-04-03T13:33:03;4.35;;;1.70;;
23185;SDS011;11761;51.324;4.590;2023-04-03T13:35:38;2.22;;;1.15;;
23185;SDS011;11761;51.324;4.590;2023-04-03T13:38:21;4.43;;;1.20;;
23185;SDS011;11761;51.324;4.590;2023-04-03T13:43:25;1.95;;;1.08;;
23185;SDS011;11761;51.324;4.590;2023-04-03T13:45:56;3.28;;;1.10;;
23185;SDS011;11761;51.324;4.590;2023-04-03T13:51:27;3.65;;;0.98;;
23185;SDS011;11761;51.324;4.590;2023-04-03T13:53:57;2.85;;;1.00;;
23185;SDS011;11761;51.324;4.590;2023-04-03T13:56:39;2.45;;;1.08;;
23185;SDS011;11761;51.324;4.590;2023-04-03T14:04:31;3.25;;;1.73;;
23185;SDS011;11761;51.324;4.590;2023-04-03T14:07:11;4.13;;;1.60;;
23185;SDS011;11761;51.324;4.590;2023-04-03T14:09:38;2.72;;;1.35;;
23185;SDS011;11761;51.324;4.590;2023-04-03T14:12:15;4.13;;;1.80;;
23185;SDS011;11761;51.324;4.590;2023-04-03T14:14:51;3.67;;;1.30;;
23185;SDS011;11761;51.324;4.590;2023-04-03T14:17:19;2.50;;;1.65;;
23185;SDS011;11761;51.324;4.590;2023-04-03T14:19:49;2.42;;;1.15;;
23185;SDS011;11761;51.324;4.590;2023-04-03T14:24:44;2.20;;;1.10;;
23185;SDS011;11761;51.324;4.590;2023-04-03T14:27:15;2.28;;;1.42;;
23185;SDS011;11761;51.324;4.590;2023-04-03T14:29:43;2.08;;;1.23;;
23185;SDS011;11761;51.324;4.590;2023-04-03T14:32:13;1.98;;;1.10;;
23185;SDS011;11761;51.324;4.590;2023-04-03T14:34:43;6.32;;;1.38;;
23185;SDS011;11761;51.324;4.590;2023-04-03T14:37:13;2.15;;;1.30;;
23185;SDS011;11761;51.324;4.590;2023-04-03T14:39:42;2.38;;;1.00;;
23185;SDS011;11761;51.324;4.590;2023-04-03T14:42:18;2.22;;;1.38;;
23185;SDS011;11761;51.324;4.590;2023-04-03T14:44:46;2.38;;;0.93;;
23185;SDS011;11761;51.324;4.590;2023-04-03T14:47:16;2.80;;;1.27;;
23185;SDS011;11761;51.324;4.590;2023-04-03T14:49:50;3.97;;;2.10;;
23185;SDS011;11761;51.324;4.590;2023-04-03T14:52:22;4.50;;;1.30;;
23185;SDS011;11761;51.324;4.590;2023-04-03T14:54:53;2.70;;;1.10;;
23185;SDS011;11761;51.324;4.590;2023-04-03T14:57:19;3.00;;;1.20;;
23185;SDS011;11761;51.324;4.590;2023-04-03T14:59:50;3.53;;;1.30;;
23185;SDS011;11761;51.324;4.590;2023-04-03T15:05:01;2.17;;;1.40;;
23185;SDS011;11761;51.324;4.590;2023-04-03T15:07:30;3.00;;;1.20;;
23185;SDS011;11761;51.324;4.590;2023-04-03T15:12:41;3.53;;;1.10;;
23185;SDS011;11761;51.324;4.590;2023-04-03T15:15:08;3.25;;;1.92;;
23185;SDS011;11761;51.324;4.590;2023-04-03T15:17:35;3.15;;;1.30;;
23185;SDS011;11761;51.324;4.590;2023-04-03T15:20:02;3.45;;;1.33;;
23185;SDS011;11761;51.324;4.590;2023-04-03T15:22:29;2.80;;;1.45;;
23185;SDS011;11761;51.324;4.590;2023-04-03T15:24:55;4.75;;;1.60;;
23185;SDS011;11761;51.324;4.590;2023-04-03T15:27:21;2.83;;;1.65;;
23185;SDS011;11761;51.324;4.590;2023-04-03T15:29:46;3.17;;;1.52;;
23185;SDS011;11761;51.324;4.590;2023-04-03T15:32:13;3.75;;;1.35;;
23185;SDS011;11761;51.324;4.590;2023-04-03T15:34:39;2.92;;;1.38;;
23185;SDS011;11761;51.324;4.590;2023-04-03T15:37:05;3.97;;;1.67;;
23185;SDS011;11761;51.324;4.590;2023-04-03T15:39:31;3.17;;;1.60;;
23185;SDS011;11761;51.324;4.590;2023-04-03T15:41:58;5.38;;;1.95;;
23185;SDS011;11761;51.324;4.590;2023-04-03T15:44:32;3.72;;;1.70;;
23185;SDS011;11761;51.324;4.590;2023-04-03T15:46:59;3.30;;;1.67;;
23185;SDS011;11761;51.324;4.590;2023-04-03T15:49:26;6.40;;;2.72;;
23185;SDS011;11761;51.324;4.590;2023-04-03T15:51:52;4.45;;;2.28;;
23185;SDS011;11761;51.324;4.590;2023-04-03T15:54:18;5.35;;;1.70;;
23185;SDS011;11761;51.324;4.590;2023-04-03T15:56:46;5.13;;;1.63;;
23185;SDS011;11761;51.324;4.590;2023-04-03T15:59:12;2.47;;;1.48;;
23185;SDS011;11761;51.324;4.590;2023-04-03T16:01:38;3.72;;;1.67;;
23185;SDS011;11761;51.324;4.590;2023-04-03T16:04:05;3.08;;;1.70;;
23185;SDS011;11761;51.324;4.590;2023-04-03T16:06:33;4.13;;;1.70;;
23185;SDS011;11761;51.324;4.590;2023-04-03T16:08:59;4.28;;;2.25;;
23185;SDS011;11761;51.324;4.590;2023-04-03T16:11:26;4.68;;;2.33;;
23185;SDS011;11761;51.324;4.590;2023-04-03T16:13:53;7.45;;;2.67;;
23185;SDS011;11761;51.324;4.590;2023-04-03T16:16:22;4.95;;;2.88;;
23185;SDS011;11761;51.324;4.590;2023-04-03T16:18:49;7.35;;;4.07;;
23185;SDS011;11761;51.324;4.590;2023-04-03T16:21:16;3.55;;;2.40;;
23185;SDS011;11761;51.324;4.590;2023-04-03T16:23:42;4.35;;;1.67;;
23185;SDS011;11761;51.324;4.590;2023-04-03T16:26:09;5.40;;;1.98;;
23185;SDS011;11761;51.324;4.590;2023-04-03T16:28:35;2.92;;;1.70;;
23185;SDS011;11761;51.324;4.590;2023-04-03T16:31:01;2.88;;;1.60;;
23185;SDS011;11761;51.324;4.590;2023-04-03T16:33:28;3.80;;;2.03;;
23185;SDS011;11761;51.324;4.590;2023-04-03T16:35:55;3.70;;;1.95;;
23185;SDS011;11761;51.324;4.590;2023-04-03T16:38:22;5.22;;;2.35;;
23185;SDS011;11761;51.324;4.590;2023-04-03T16:40:55;4.47;;;1.80;;
23185;SDS011;11761;51.324;4.590;2023-04-03T16:43:28;3.95;;;2.00;;
23185;SDS011;11761;51.324;4.590;2023-04-03T16:45:55;4.85;;;2.20;;
23185;SDS011;11761;51.324;4.590;2023-04-03T16:48:23;3.65;;;2.35;;
23185;SDS011;11761;51.324;4.590;2023-04-03T16:50:50;4.95;;;2.67;;
23185;SDS011;11761;51.324;4.590;2023-04-03T16:53:19;5.72;;;2.22;;
23185;SDS011;11761;51.324;4.590;2023-04-03T16:55:49;4.85;;;1.92;;
23185;SDS011;11761;51.324;4.590;2023-04-03T16:58:21;8.20;;;3.20;;
23185;SDS011;11761;51.324;4.590;2023-04-03T17:00:47;3.80;;;2.22;;
23185;SDS011;11761;51.324;4.590;2023-04-03T17:03:13;5.32;;;2.60;;
23185;SDS011;11761;51.324;4.590;2023-04-03T17:05:39;6.20;;;2.28;;